Time;durP1;ratioP1;P1;durP2;ratioP2;P2;SDS_P1;SDS_P2;PMS_P1;PMS_P2;Temp;Humidity;BMP_temperature;BMP_pressure;BME280_temperature;BME280_humidity;BME280_pressure;Samples;Min_cycle;Max_cycle;Signal;HPM_P1;HPM_P2
2022/06/15 00:02:18;;;;;;;9.07;5.50;;;13.90;99.90;;;;;;4841405;29;20053;-78
2022/06/15 00:04:44;;;;;;;9.40;5.80;;;13.90;99.90;;;;;;4858472;29;20045;-78
2022/06/15 00:07:10;;;;;;;7.68;5.35;;;13.80;99.90;;;;;;4886196;29;20370;-78
2022/06/15 00:09:35;;;;;;;9.70;5.60;;;13.80;99.90;;;;;;4874618;29;20041;-77
2022/06/15 00:12:02;;;;;;;9.05;5.72;;;13.80;99.90;;;;;;4872352;29;20405;-78
2022/06/15 00:14:28;;;;;;;9.27;5.25;;;13.70;99.90;;;;;;4870369;29;20041;-78
2022/06/15 00:16:55;;;;;;;9.52;5.50;;;13.70;99.90;;;;;;4873516;29;20068;-78
2022/06/15 00:19:21;;;;;;;7.35;5.18;;;13.60;99.90;;;;;;4854925;29;20060;-78
2022/06/15 00:21:48;;;;;;;9.10;5.55;;;13.60;99.90;;;;;;4871408;29;20048;-78
2022/06/15 00:24:14;;;;;;;8.80;5.65;;;13.60;99.90;;;;;;4886493;29;20047;-78
2022/06/15 00:26:41;;;;;;;8.20;5.35;;;13.50;99.90;;;;;;4860480;29;20036;-78
2022/06/15 00:29:08;;;;;;;6.43;5.30;;;13.50;99.90;;;;;;4867401;29;20048;-77
2022/06/15 00:31:33;;;;;;;10.73;5.45;;;13.40;99.90;;;;;;4871614;29;20356;-77
2022/06/15 00:33:59;;;;;;;6.93;5.15;;;13.50;99.90;;;;;;4866913;29;20096;-78
2022/06/15 00:36:25;;;;;;;8.45;5.50;;;13.40;99.90;;;;;;4838555;29;20075;-78
2022/06/15 00:38:54;;;;;;;8.65;4.95;;;13.40;99.90;;;;;;4852205;29;20040;-78
2022/06/15 00:41:27;;;;;;;9.07;5.47;;;13.30;99.90;;;;;;4865595;29;20051;-78
2022/06/15 00:43:56;;;;;;;10.68;5.78;;;13.30;99.90;;;;;;4865981;29;20099;-78
2022/06/15 00:46:37;;;;;;;10.77;5.35;;;13.20;99.90;;;;;;4865162;29;20048;-78
2022/06/15 00:49:28;;;;;;;7.43;5.35;;;13.10;99.90;;;;;;4882914;29;20075;-79
2022/06/15 00:52:01;;;;;;;9.48;5.20;;;13.10;99.90;;;;;;4887491;29;20421;-78
2022/06/15 00:54:27;;;;;;;9.50;5.97;;;13.10;99.90;;;;;;4872706;29;20071;-79
2022/06/15 00:56:54;;;;;;;8.77;5.40;;;13.10;99.90;;;;;;4879603;29;20057;-78
2022/06/15 00:59:38;;;;;;;8.82;5.95;;;13.00;99.90;;;;;;4880389;29;20371;-78
2022/06/15 01:02:03;;;;;;;8.23;6.00;;;13.00;99.90;;;;;;4879326;29;20044;-78
2022/06/15 01:04:37;;;;;;;9.55;5.00;;;12.90;99.90;;;;;;4870594;29;20083;-78
2022/06/15 01:07:38;;;;;;;9.57;5.60;;;13.00;99.90;;;;;;4884701;29;20048;-78
2022/06/15 01:10:26;;;;;;;9.10;5.60;;;13.00;99.90;;;;;;4824100;29;20042;-79
2022/06/15 01:13:30;;;;;;;10.07;5.25;;;12.90;99.90;;;;;;4889948;29;20092;-78
2022/06/15 01:16:01;;;;;;;12.27;5.47;;;12.90;99.90;;;;;;4884468;29;21319;-79
2022/06/15 01:19:05;;;;;;;8.32;5.38;;;12.90;99.90;;;;;;4883259;29;20048;-78
2022/06/15 01:21:45;;;;;;;8.27;5.38;;;12.90;99.90;;;;;;4886755;29;20081;-78
2022/06/15 01:24:16;;;;;;;10.85;5.50;;;12.80;99.90;;;;;;4882730;29;20488;-79
2022/06/15 01:27:22;;;;;;;10.10;5.50;;;12.80;99.90;;;;;;4888321;29;20509;-78
2022/06/15 01:30:12;;;;;;;11.40;5.77;;;12.80;99.90;;;;;;4884599;29;20389;-78
2022/06/15 01:32:58;;;;;;;12.75;6.03;;;12.80;99.90;;;;;;4871042;29;20042;-78
2022/06/15 01:35:28;;;;;;;14.07;6.88;;;12.80;99.90;;;;;;4868698;29;20131;-78
2022/06/15 01:38:19;;;;;;;9.55;5.65;;;12.70;99.90;;;;;;4872963;29;20049;-78
2022/06/15 01:40:50;;;;;;;10.43;5.75;;;12.70;99.90;;;;;;4869957;29;20056;-79
2022/06/15 01:43:21;;;;;;;9.13;5.85;;;11.40;99.90;;;;;;4883125;29;20041;-78
2022/06/15 01:45:49;;;;;;;11.50;6.15;;;12.70;99.90;;;;;;4890221;29;20049;-78
2022/06/15 01:48:16;;;;;;;11.60;5.85;;;12.60;99.90;;;;;;4885738;29;20059;-79
2022/06/15 01:50:51;;;;;;;10.05;6.05;;;12.60;99.90;;;;;;4884389;29;20052;-79
2022/06/15 01:53:25;;;;;;;9.15;6.20;;;12.60;99.90;;;;;;4888277;29;20116;-78
2022/06/15 01:56:01;;;;;;;10.27;6.00;;;12.60;99.90;;;;;;4885176;29;20044;-78
2022/06/15 01:58:30;;;;;;;10.10;6.10;;;12.50;99.90;;;;;;4882878;29;20386;-78
2022/06/15 02:01:24;;;;;;;9.95;6.32;;;12.40;99.90;;;;;;4868908;29;20490;-78
2022/06/15 02:04:16;;;;;;;8.82;6.43;;;12.40;99.90;;;;;;4887812;29;20041;-79
2022/06/15 02:07:11;;;;;;;7.30;6.00;;;12.40;99.90;;;;;;4863723;29;20087;-78
2022/06/15 02:09:55;;;;;;;9.40;5.95;;;12.40;99.90;;;;;;4863784;29;20051;-78
2022/06/15 02:12:27;;;;;;;10.80;6.60;;;12.30;99.90;;;;;;4874862;29;20405;-78
2022/06/15 02:14:58;;;;;;;12.38;6.55;;;12.30;99.90;;;;;;4876254;29;20044;-78
2022/06/15 02:17:32;;;;;;;10.30;6.38;;;12.30;99.90;;;;;;4887195;29;20054;-78
2022/06/15 02:20:04;;;;;;;11.88;6.43;;;12.30;99.90;;;;;;4888199;29;20056;-78
2022/06/15 02:22:32;;;;;;;11.60;6.05;;;12.20;99.90;;;;;;4868725;29;20049;-78
2022/06/15 02:25:03;;;;;;;8.73;6.15;;;12.20;99.90;;;;;;4873634;29;20521;-78
2022/06/15 02:27:32;;;;;;;8.65;5.85;;;12.20;99.90;;;;;;4875479;29;20040;-78
2022/06/15 02:30:09;;;;;;;9.55;6.45;;;12.90;99.90;;;;;;4887909;29;20867;-78
2022/06/15 02:32:37;;;;;;;8.20;6.03;;;12.20;99.90;;;;;;4872547;29;20044;-79
2022/06/15 02:35:04;;;;;;;11.85;6.63;;;12.10;99.90;;;;;;4861923;29;20040;-78
2022/06/15 02:37:30;;;;;;;9.80;6.90;;;12.10;99.90;;;;;;4873403;29;20546;-78
2022/06/15 02:39:56;;;;;;;10.13;6.45;;;12.00;99.90;;;;;;4885107;29;20132;-78
2022/06/15 02:42:27;;;;;;;10.23;6.60;;;11.50;99.90;;;;;;4891086;29;20127;-78
2022/06/15 02:44:56;;;;;;;9.80;6.35;;;12.00;99.90;;;;;;4873454;29;20131;-78
2022/06/15 02:47:26;;;;;;;11.57;6.93;;;11.90;99.90;;;;;;4871599;29;20451;-78
2022/06/15 02:49:52;;;;;;;10.60;6.50;;;11.90;99.90;;;;;;4870471;29;21163;-78
2022/06/15 02:52:21;;;;;;;11.40;6.72;;;11.90;99.90;;;;;;4876520;29;20109;-78
2022/06/15 02:54:53;;;;;;;8.95;5.90;;;11.90;99.90;;;;;;4888117;29;20470;-78
2022/06/15 02:57:20;;;;;;;8.68;6.20;;;11.80;99.90;;;;;;4885431;29;20044;-78
2022/06/15 02:59:47;;;;;;;12.23;6.47;;;11.80;99.90;;;;;;4858154;29;20044;-78
2022/06/15 03:02:14;;;;;;;9.27;6.18;;;11.80;99.90;;;;;;4874810;29;20048;-78
2022/06/15 03:04:44;;;;;;;12.02;6.50;;;11.80;99.90;;;;;;4873576;29;20048;-78
2022/06/15 03:07:11;;;;;;;9.45;6.10;;;11.80;99.90;;;;;;4889368;29;20044;-78
2022/06/15 03:09:38;;;;;;;7.50;5.70;;;11.80;99.90;;;;;;4875503;29;20040;-78
2022/06/15 03:12:05;;;;;;;10.60;6.35;;;11.80;99.90;;;;;;4869588;29;20047;-78
2022/06/15 03:14:30;;;;;;;10.98;6.53;;;11.80;99.90;;;;;;4857724;29;20047;-78
2022/06/15 03:16:59;;;;;;;9.32;5.82;;;11.70;99.90;;;;;;4845806;29;20052;-78
2022/06/15 03:19:25;;;;;;;10.70;6.72;;;11.70;99.90;;;;;;4869862;29;20063;-78
2022/06/15 03:21:51;;;;;;;8.10;5.97;;;11.70;99.90;;;;;;4876148;29;20045;-79
2022/06/15 03:24:17;;;;;;;9.20;5.97;;;11.80;99.90;;;;;;4857409;29;20036;-78
2022/06/15 03:26:42;;;;;;;10.13;6.30;;;11.70;99.90;;;;;;4835110;29;20032;-78
2022/06/15 03:29:08;;;;;;;8.60;6.00;;;11.70;99.90;;;;;;4872995;29;20044;-78
2022/06/15 03:31:34;;;;;;;10.10;6.03;;;11.70;99.90;;;;;;4873365;29;20130;-79
2022/06/15 03:34:00;;;;;;;9.45;6.47;;;11.60;99.90;;;;;;4841884;29;20394;-78
2022/06/15 03:36:25;;;;;;;11.27;6.50;;;11.70;99.90;;;;;;4888277;29;20059;-78
2022/06/15 03:38:51;;;;;;;10.10;6.10;;;11.60;99.90;;;;;;4858951;29;20049;-79
2022/06/15 03:41:19;;;;;;;9.27;6.15;;;11.70;99.90;;;;;;4852080;29;20112;-78
2022/06/15 03:43:45;;;;;;;12.55;6.07;;;11.70;99.90;;;;;;4873269;29;20744;-78
2022/06/15 03:46:12;;;;;;;9.35;6.32;;;11.70;99.90;;;;;;4872034;29;20083;-78
2022/06/15 03:48:38;;;;;;;10.88;5.95;;;11.60;99.90;;;;;;4873219;29;20040;-79
2022/06/15 03:51:04;;;;;;;8.55;6.07;;;11.70;99.90;;;;;;4838112;29;20040;-78
2022/06/15 03:53:30;;;;;;;8.88;6.15;;;11.70;99.90;;;;;;4890867;29;20052;-78
2022/06/15 03:55:55;;;;;;;10.02;6.00;;;11.70;99.90;;;;;;4857806;29;20114;-78
2022/06/15 03:58:21;;;;;;;8.95;5.72;;;11.70;99.90;;;;;;4886008;29;20044;-78
2022/06/15 04:00:49;;;;;;;11.45;6.50;;;11.70;99.90;;;;;;4905101;29;20052;-78
2022/06/15 04:03:15;;;;;;;8.68;5.97;;;11.60;99.90;;;;;;4859592;29;20119;-78
2022/06/15 04:05:50;;;;;;;8.18;5.97;;;11.60;99.90;;;;;;4872098;29;20044;-78
2022/06/15 04:11:09;;;;;;;8.38;6.18;;;11.60;99.90;;;;;;4885872;29;20083;-78
2022/06/15 04:13:36;;;;;;;8.27;6.30;;;11.60;99.90;;;;;;4883876;29;20434;-78
2022/06/15 04:16:08;;;;;;;8.98;5.90;;;11.60;99.90;;;;;;4887510;29;20064;-78
2022/06/15 04:18:34;;;;;;;9.20;6.18;;;11.80;99.90;;;;;;4908961;29;20059;-78
2022/06/15 04:21:00;;;;;;;9.38;5.78;;;11.70;99.90;;;;;;4870474;29;20124;-78
2022/06/15 04:23:26;;;;;;;10.48;6.13;;;11.70;99.90;;;;;;4857419;29;20181;-78
2022/06/15 04:25:57;;;;;;;7.25;5.80;;;11.70;99.90;;;;;;4871730;29;20123;-78
2022/06/15 04:28:25;;;;;;;9.45;5.88;;;11.80;99.90;;;;;;4865180;29;20418;-79
2022/06/15 04:30:50;;;;;;;8.98;5.90;;;11.80;99.90;;;;;;4857844;29;20131;-78
2022/06/15 04:33:18;;;;;;;8.50;6.45;;;11.80;99.90;;;;;;4869885;29;20553;-79
2022/06/15 04:35:44;;;;;;;9.85;6.13;;;11.80;99.90;;;;;;4866804;29;20064;-78
2022/06/15 04:38:11;;;;;;;10.77;6.25;;;11.80;99.90;;;;;;4867705;29;20101;-78
2022/06/15 04:40:38;;;;;;;11.43;6.35;;;11.80;99.90;;;;;;4857043;29;20051;-79
2022/06/15 04:43:08;;;;;;;11.25;5.82;;;11.90;99.90;;;;;;4883458;29;20043;-79
2022/06/15 04:45:35;;;;;;;8.45;6.20;;;11.90;99.90;;;;;;4885084;29;20045;-79
2022/06/15 04:48:01;;;;;;;9.00;5.80;;;11.90;99.90;;;;;;4869729;29;20036;-78
2022/06/15 04:50:28;;;;;;;8.90;6.10;;;11.90;99.90;;;;;;4869110;29;20044;-78
2022/06/15 04:52:54;;;;;;;13.23;6.75;;;11.90;99.90;;;;;;4855800;29;20397;-78
2022/06/15 04:55:22;;;;;;;11.35;6.82;;;12.00;99.90;;;;;;4886517;29;20044;-78
2022/06/15 04:57:53;;;;;;;9.18;6.65;;;12.00;99.90;;;;;;4862756;29;20051;-78
2022/06/15 05:00:19;;;;;;;10.60;6.40;;;12.10;99.90;;;;;;4868771;29;20043;-78
2022/06/15 05:02:45;;;;;;;9.40;6.47;;;12.10;99.90;;;;;;4875272;29;20060;-79
2022/06/15 05:05:11;;;;;;;8.45;6.68;;;12.10;99.90;;;;;;4856050;29;20485;-78
2022/06/15 05:07:37;;;;;;;10.68;7.00;;;12.10;99.90;;;;;;4903557;29;20048;-78
2022/06/15 05:10:04;;;;;;;16.98;6.60;;;12.20;99.90;;;;;;4874368;29;20045;-78
2022/06/15 05:12:30;;;;;;;10.95;6.28;;;12.30;99.90;;;;;;4872783;29;20049;-78
2022/06/15 05:14:56;;;;;;;9.25;6.30;;;12.30;99.90;;;;;;4887944;29;20040;-78
2022/06/15 05:17:23;;;;;;;11.80;6.47;;;12.40;99.90;;;;;;4872991;29;20044;-79
2022/06/15 05:19:49;;;;;;;11.05;6.50;;;12.40;99.90;;;;;;4887816;29;20064;-78
2022/06/15 05:22:14;;;;;;;9.93;5.97;;;12.50;99.90;;;;;;4857420;29;20100;-79
2022/06/15 05:24:40;;;;;;;11.45;6.55;;;12.60;99.90;;;;;;4857407;29;20433;-79
2022/06/15 05:27:06;;;;;;;11.73;6.50;;;12.60;99.90;;;;;;4857321;29;20104;-78
2022/06/15 05:29:35;;;;;;;13.02;6.55;;;12.70;99.90;;;;;;4890603;29;20037;-79
2022/06/15 05:32:05;;;;;;;10.10;6.78;;;12.80;99.90;;;;;;4887954;29;20044;-78
2022/06/15 05:34:31;;;;;;;10.70;6.22;;;12.90;99.90;;;;;;4873610;29;20067;-78
2022/06/15 05:36:57;;;;;;;8.90;6.25;;;12.90;99.90;;;;;;4868380;29;20488;-78
2022/06/15 05:39:23;;;;;;;14.30;5.93;;;13.00;99.90;;;;;;4878097;29;20045;-78
2022/06/15 05:41:50;;;;;;;10.35;6.20;;;13.00;99.90;;;;;;4871131;29;20607;-79
2022/06/15 05:46:45;;;;;;;11.63;6.05;;;13.20;99.90;;;;;;4883661;29;20056;-79
2022/06/15 05:49:11;;;;;;;9.48;5.88;;;13.30;99.90;;;;;;4856255;29;20036;-78
2022/06/15 05:51:37;;;;;;;10.05;6.03;;;13.30;99.90;;;;;;4876123;29;20135;-77
2022/06/15 05:54:03;;;;;;;9.30;6.03;;;13.40;99.90;;;;;;4840838;29;20052;-78
2022/06/15 05:56:29;;;;;;;8.25;5.70;;;13.50;99.90;;;;;;4878560;29;20057;-78
2022/06/15 05:58:54;;;;;;;11.23;5.82;;;13.50;99.90;;;;;;4861642;29;20513;-78
2022/06/15 06:01:24;;;;;;;11.27;6.00;;;13.60;99.90;;;;;;4896300;29;20051;-77
2022/06/15 06:03:50;;;;;;;11.40;6.22;;;13.70;99.90;;;;;;4875196;29;20041;-79
2022/06/15 06:06:16;;;;;;;8.93;6.03;;;13.70;99.90;;;;;;4887264;29;20256;-78
2022/06/15 06:08:42;;;;;;;10.50;6.50;;;13.90;99.90;;;;;;4890419;29;20509;-78
2022/06/15 06:11:11;;;;;;;10.35;6.82;;;13.90;99.90;;;;;;4871264;29;20080;-78
2022/06/15 06:16:48;;;;;;;9.70;6.00;;;14.20;99.90;;;;;;4878376;29;20474;-77
2022/06/15 06:22:52;;;;;;;9.15;5.53;;;14.40;99.90;;;;;;4889371;29;20045;-77
2022/06/15 06:25:23;;;;;;;10.38;5.53;;;14.50;99.90;;;;;;4866240;29;20032;-78
2022/06/15 06:27:49;;;;;;;8.10;5.60;;;14.70;99.90;;;;;;4874670;29;20100;-78
2022/06/15 06:34:02;;;;;;;9.40;5.30;;;15.10;99.90;;;;;;4878709;29;20557;-78
2022/06/15 06:37:02;;;;;;;9.38;5.35;;;15.30;99.90;;;;;;4895616;29;20060;-78
2022/06/15 06:39:43;;;;;;;8.80;5.25;;;15.60;99.90;;;;;;4845918;29;20068;-78
2022/06/15 06:43:05;;;;;;;10.75;5.43;;;15.80;99.90;;;;;;4845713;29;20460;-79
2022/06/15 06:45:39;;;;;;;8.07;5.53;;;16.00;99.90;;;;;;4844300;29;20117;-78
2022/06/15 06:48:35;;;;;;;9.10;5.43;;;16.20;99.90;;;;;;4829165;29;20088;-78
2022/06/15 06:54:34;;;;;;;;;;;;;;;;;;;;;
2022/06/15 06:57:12;;;;;;;8.20;4.85;;;16.80;99.90;;;;;;4830170;29;20511;-78
2022/06/15 07:03:26;;;;;;;10.93;4.55;;;17.20;99.90;;;;;;4830468;29;20049;-78
2022/06/15 07:06:11;;;;;;;9.55;4.63;;;17.40;99.90;;;;;;4815061;29;20456;-79
2022/06/15 07:11:48;;;;;;;10.52;4.18;;;17.70;99.90;;;;;;4819623;29;20635;-79
2022/06/15 07:17:14;;;;;;;8.05;4.22;;;18.00;99.90;;;;;;4865441;29;20453;-78
2022/06/15 07:19:49;;;;;;;9.70;3.67;;;18.20;99.90;;;;;;4891492;29;20068;-78
2022/06/15 07:22:39;;;;;;;9.23;3.90;;;18.30;99.90;;;;;;4870574;29;20399;-79
2022/06/15 07:28:44;;;;;;;;;;;;;;;;;;;;;
2022/06/15 07:31:21;;;;;;;7.80;3.45;;;18.80;99.90;;;;;;4856140;29;20067;-79
2022/06/15 07:36:58;;;;;;;6.20;3.33;;;19.20;99.90;;;;;;4843232;29;20064;-79
2022/06/15 07:39:55;;;;;;;6.95;3.15;;;19.50;99.90;;;;;;4857217;29;20161;-79
2022/06/15 07:51:03;;;;;;;7.40;3.00;;;21.00;99.90;;;;;;4870302;29;20113;-79
2022/06/15 07:53:46;;;;;;;5.43;2.80;;;21.30;99.90;;;;;;4852538;29;20068;-79
2022/06/15 07:56:21;;;;;;;5.03;2.40;;;21.50;99.90;;;;;;4841605;29;20080;-80
2022/06/15 08:02:00;;;;;;;6.70;2.83;;;21.90;99.90;;;;;;4846895;29;20049;-78
2022/06/15 08:04:58;;;;;;;8.07;2.65;;;22.00;99.90;;;;;;4842374;29;20075;-79
2022/06/15 08:07:37;;;;;;;4.55;2.35;;;22.10;99.90;;;;;;4858639;29;20109;-78
2022/06/15 08:10:11;;;;;;;4.85;2.22;;;22.30;99.90;;;;;;4876505;29;20450;-78
2022/06/15 08:16:19;;;;;;;5.93;2.42;;;22.50;99.90;;;;;;4888252;29;20056;-78
2022/06/15 08:19:35;;;;;;;6.05;2.13;;;22.60;99.90;;;;;;4868203;29;20068;-79
2022/06/15 08:22:40;;;;;;;4.00;2.15;;;22.60;99.70;;;;;;4890937;29;20179;-78
2022/06/15 08:25:44;;;;;;;6.97;2.47;;;22.50;99.80;;;;;;4889801;29;20675;-78
2022/06/15 08:28:50;;;;;;;6.78;2.40;;;22.10;97.60;;;;;;4890435;29;20569;-80
2022/06/15 08:31:53;;;;;;;4.68;1.90;;;21.70;97.40;;;;;;4884990;29;20092;-79
2022/06/15 08:34:41;;;;;;;4.47;2.03;;;21.40;98.40;;;;;;4857609;29;20088;-79
2022/06/15 08:46:44;;;;;;;3.20;1.30;;;22.00;95.80;;;;;;4869834;29;20108;-79
2022/06/15 08:53:22;;;;;;;4.22;1.60;;;22.60;93.50;;;;;;4876485;29;20516;-78
2022/06/15 08:56:31;;;;;;;5.78;1.70;;;22.80;93.80;;;;;;4863159;29;20100;-79
2022/06/15 08:59:52;;;;;;;5.10;1.73;;;23.00;92.90;;;;;;4856824;29;20055;-78
2022/06/15 09:05:53;;;;;;;6.13;2.25;;;23.20;91.30;;;;;;4880741;29;20726;-78
2022/06/15 09:15:36;;;;;;;4.72;2.05;;;23.20;90.70;;;;;;4815775;29;20505;-78
2022/06/15 09:18:32;;;;;;;4.20;1.75;;;23.50;87.90;;;;;;4862095;29;20099;-79
2022/06/15 09:21:57;;;;;;;4.53;1.92;;;23.50;84.40;;;;;;4882848;29;20065;-78
2022/06/15 09:27:42;;;;;;;6.70;1.67;;;23.50;87.50;;;;;;4888660;29;20045;-78
2022/06/15 09:30:41;;;;;;;2.80;1.40;;;23.60;86.30;;;;;;4888401;29;20051;-78
2022/06/15 09:33:39;;;;;;;3.85;1.77;;;23.60;85.80;;;;;;4886339;29;20066;-77
2022/06/15 09:36:46;;;;;;;4.55;1.92;;;23.60;86.10;;;;;;4894326;29;20045;-79
2022/06/15 09:39:18;;;;;;;4.10;1.50;;;23.60;84.60;;;;;;4886883;29;20048;-79
2022/06/15 09:42:00;;;;;;;3.45;1.40;;;23.60;84.60;;;;;;4874422;29;20047;-79
2022/06/15 09:48:05;;;;;;;3.92;1.75;;;23.40;80.30;;;;;;4879252;29;20497;-79
2022/06/15 09:50:33;;;;;;;4.75;1.70;;;23.30;83.70;;;;;;4887950;29;20043;-78
2022/06/15 09:53:21;;;;;;;3.60;1.65;;;23.50;84.00;;;;;;4874291;29;20051;-78
2022/06/15 09:56:29;;;;;;;5.00;1.60;;;23.70;82.00;;;;;;4873195;29;20124;-77
2022/06/15 09:59:05;;;;;;;4.55;1.80;;;23.70;81.80;;;;;;4866020;29;20088;-78
2022/06/15 10:01:41;;;;;;;3.90;1.50;;;23.70;82.40;;;;;;4888591;29;20139;-78
2022/06/15 10:04:16;;;;;;;3.47;1.58;;;23.60;81.00;;;;;;4885920;29;20049;-77
2022/06/15 10:07:18;;;;;;;3.72;1.52;;;23.60;81.00;;;;;;4874314;29;20517;-78
2022/06/15 10:13:43;;;;;;;2.63;1.35;;;23.80;83.50;;;;;;4882855;29;20044;-78
2022/06/15 10:16:18;;;;;;;4.30;1.92;;;23.90;80.60;;;;;;4832088;29;20065;-78
2022/06/15 10:22:04;;;;;;;3.83;1.52;;;23.70;81.90;;;;;;4887435;29;20044;-78
2022/06/15 10:31:37;;;;;;;4.32;1.48;;;23.50;79.60;;;;;;4770004;30;20556;-79
2022/06/15 10:34:33;;;;;;;8.23;1.50;;;23.30;77.80;;;;;;4836463;29;20523;-80
2022/06/15 10:37:21;;;;;;;4.70;1.50;;;23.10;78.40;;;;;;4835346;29;20043;-78
2022/06/15 10:43:01;;;;;;;7.82;1.65;;;22.90;79.50;;;;;;4851747;29;20193;-78
2022/06/15 10:45:40;;;;;;;4.70;1.88;;;22.90;80.30;;;;;;4866713;29;20666;-79
2022/06/15 10:48:41;;;;;;;5.30;1.60;;;22.80;78.90;;;;;;4881212;29;20055;-78
2022/06/15 10:51:29;;;;;;;3.25;1.38;;;22.80;81.70;;;;;;4860828;29;20049;-78
2022/06/15 10:54:22;;;;;;;3.03;1.48;;;22.80;80.00;;;;;;4869746;29;20127;-78
2022/06/15 11:06:21;;;;;;;3.05;1.38;;;23.00;79.50;;;;;;4855755;29;20451;-76
2022/06/15 11:09:16;;;;;;;7.47;1.92;;;23.00;80.80;;;;;;4865889;29;20048;-77
2022/06/15 11:11:44;;;;;;;3.40;1.38;;;23.10;80.00;;;;;;4874786;29;20055;-77
2022/06/15 11:14:58;;;;;;;3.87;1.30;;;23.20;81.40;;;;;;4868991;29;20076;-77
2022/06/15 11:21:06;;;;;;;3.65;1.95;;;23.60;80.10;;;;;;4883750;29;20389;-78
2022/06/15 11:24:11;;;;;;;3.05;1.40;;;23.80;79.50;;;;;;4889232;29;20509;-78
2022/06/15 11:27:15;;;;;;;4.70;1.65;;;23.70;78.70;;;;;;4890824;29;20044;-79
2022/06/15 11:29:57;;;;;;;5.97;1.85;;;23.70;79.90;;;;;;4876686;29;20048;-80
2022/06/15 11:33:10;;;;;;;3.92;1.70;;;23.40;78.60;;;;;;4876764;29;20057;-80
2022/06/15 11:36:00;;;;;;;5.05;1.60;;;23.50;79.20;;;;;;4890451;29;20047;-78
2022/06/15 11:38:50;;;;;;;4.63;1.40;;;23.50;81.70;;;;;;4872066;29;20373;-79
2022/06/15 11:51:13;;;;;;;3.85;1.85;;;24.20;77.10;;;;;;4890543;29;20049;-79
2022/06/15 11:54:22;;;;;;;6.47;1.70;;;24.30;78.00;;;;;;4886814;29;20426;-78
2022/06/15 11:57:09;;;;;;;4.70;1.65;;;24.40;75.10;;;;;;4890217;29;20509;-79
2022/06/15 12:03:10;;;;;;;2.45;1.20;;;24.40;76.10;;;;;;4888724;29;20056;-80
2022/06/15 12:06:06;;;;;;;7.00;1.50;;;24.40;77.40;;;;;;4870466;29;20485;-79
2022/06/15 12:08:59;;;;;;;5.32;1.55;;;24.40;76.80;;;;;;4867833;29;20412;-79
2022/06/15 12:15:21;;;;;;;4.85;1.67;;;24.70;76.40;;;;;;4890661;29;20564;-79
2022/06/15 12:17:57;;;;;;;4.22;1.60;;;24.60;72.90;;;;;;4875571;29;20568;-79
2022/06/15 12:20:43;;;;;;;5.03;1.90;;;24.50;75.50;;;;;;4892222;29;20062;-79
2022/06/15 12:27:16;;;;;;;4.65;1.42;;;24.40;75.60;;;;;;4863449;29;20052;-79
2022/06/15 12:30:26;;;;;;;5.85;2.00;;;24.70;77.50;;;;;;4848091;29;20730;-79
2022/06/15 12:33:31;;;;;;;4.10;1.83;;;25.00;76.50;;;;;;4876332;29;20048;-79
2022/06/15 12:36:35;;;;;;;3.97;1.63;;;25.50;75.30;;;;;;4868257;29;20079;-79
2022/06/15 12:40:13;;;;;;;4.63;1.70;;;26.00;74.40;;;;;;4861540;29;20060;-79
2022/06/15 12:42:41;;;;;;;5.05;1.70;;;26.20;73.60;;;;;;4853923;29;20499;-79
2022/06/15 12:45:28;;;;;;;4.13;1.60;;;26.70;71.20;;;;;;4844547;29;20430;-79
2022/06/15 12:51:21;;;;;;;4.30;1.50;;;27.10;70.20;;;;;;4888113;29;20401;-79
2022/06/15 12:54:43;;;;;;;4.75;1.52;;;27.20;68.50;;;;;;4870297;29;20043;-80
2022/06/15 13:00:40;;;;;;;4.25;1.70;;;27.70;68.40;;;;;;4875427;29;20355;-79
2022/06/15 13:07:01;;;;;;;4.35;1.80;;;27.80;67.90;;;;;;4873169;29;20047;-79
2022/06/15 13:09:37;;;;;;;2.88;1.80;;;27.80;66.40;;;;;;4865648;29;20044;-79
2022/06/15 13:12:08;;;;;;;4.45;1.40;;;28.00;65.50;;;;;;4857509;29;21369;-79
2022/06/15 13:15:27;;;;;;;3.97;1.85;;;28.00;64.20;;;;;;4867254;29;20088;-80
2022/06/15 13:18:34;;;;;;;2.38;1.42;;;28.10;63.00;;;;;;4891719;29;20127;-79
2022/06/15 13:21:09;;;;;;;2.53;1.30;;;28.30;64.30;;;;;;4865300;29;20556;-79
2022/06/15 13:23:46;;;;;;;2.70;1.60;;;28.50;64.70;;;;;;4888786;29;20397;-79
2022/06/15 13:26:36;;;;;;;2.60;1.60;;;28.90;64.50;;;;;;4871788;29;20056;-79
2022/06/15 13:29:07;;;;;;;15.23;2.00;;;29.00;66.20;;;;;;4884936;29;20049;-79
2022/06/15 13:35:28;;;;;;;2.63;1.58;;;29.40;63.60;;;;;;4877855;29;20441;-79
2022/06/15 13:42:08;;;;;;;3.30;1.65;;;28.20;62.90;;;;;;4886566;29;20113;-78
2022/06/15 13:48:22;;;;;;;3.10;1.50;;;27.80;64.00;;;;;;4846578;29;20055;-79
2022/06/15 13:51:17;;;;;;;5.40;1.58;;;28.00;64.00;;;;;;4870902;29;20065;-79
2022/06/15 13:54:26;;;;;;;4.45;2.03;;;28.20;65.80;;;;;;4871473;29;20067;-79
2022/06/15 13:56:58;;;;;;;2.28;1.40;;;28.30;63.00;;;;;;4874801;29;20407;-78
2022/06/15 14:00:00;;;;;;;3.28;1.60;;;28.20;62.80;;;;;;4882471;29;20040;-78
2022/06/15 14:02:54;;;;;;;3.30;1.45;;;28.10;63.50;;;;;;4885032;29;20177;-78
2022/06/15 14:12:45;;;;;;;2.20;1.40;;;27.60;60.70;;;;;;4893300;29;20056;-78
2022/06/15 14:15:51;;;;;;;2.67;1.80;;;27.80;59.60;;;;;;4845665;29;20429;-79
2022/06/15 14:19:13;;;;;;;3.42;1.45;;;28.00;60.80;;;;;;4816673;29;20121;-78
2022/06/15 14:22:31;;;;;;;4.50;1.50;;;28.30;59.50;;;;;;4795755;29;20057;-79
2022/06/15 14:25:20;;;;;;;3.05;1.38;;;28.40;60.00;;;;;;4809923;29;20107;-79
2022/06/15 14:31:03;;;;;;;4.25;1.17;;;28.70;60.20;;;;;;4826187;29;20424;-79
2022/06/15 14:34:02;;;;;;;3.88;1.60;;;28.70;61.90;;;;;;4843142;29;20344;-79
2022/06/15 14:36:44;;;;;;;4.57;1.40;;;28.80;62.00;;;;;;4799657;29;20056;-78
2022/06/15 14:39:25;;;;;;;2.83;1.55;;;28.90;61.70;;;;;;4849692;29;20360;-79
2022/06/15 14:45:55;;;;;;;3.83;1.55;;;28.40;59.30;;;;;;4838280;29;20041;-78
2022/06/15 14:48:30;;;;;;;2.90;1.50;;;28.30;61.40;;;;;;4876256;29;20036;-78
2022/06/15 14:54:30;;;;;;;2.97;1.50;;;28.30;62.40;;;;;;4869250;29;20044;-79
2022/06/15 14:57:26;;;;;;;3.97;1.55;;;28.30;62.40;;;;;;4868277;29;20044;-79
2022/06/15 15:00:35;;;;;;;2.88;1.20;;;28.10;64.00;;;;;;4874559;29;20489;-80
2022/06/15 15:09:40;;;;;;;3.63;1.67;;;27.80;61.90;;;;;;4907595;29;20095;-79
2022/06/15 15:12:10;;;;;;;4.97;1.65;;;27.60;61.00;;;;;;4887557;29;20080;-80
2022/06/15 15:14:57;;;;;;;3.90;1.70;;;27.80;61.60;;;;;;4889062;29;20063;-79
2022/06/15 15:20:48;;;;;;;3.42;1.67;;;27.90;61.20;;;;;;4884390;29;20469;-78
2022/06/15 15:36:11;;;;;;;4.38;1.70;;;27.90;60.10;;;;;;4862641;29;20044;-81
2022/06/15 15:44:52;;;;;;;5.47;1.58;;;28.50;59.70;;;;;;4886333;29;20132;-83
2022/06/15 15:47:29;;;;;;;3.60;1.70;;;29.00;58.60;;;;;;4868774;29;20047;-82
2022/06/15 15:50:10;;;;;;;3.13;1.65;;;29.40;58.20;;;;;;4856414;29;20044;-82
2022/06/15 15:52:52;;;;;;;4.70;1.90;;;29.60;58.30;;;;;;4885858;29;20040;-82
2022/06/15 15:58:32;;;;;;;4.07;2.00;;;29.70;59.70;;;;;;4845797;29;20071;-82
2022/06/15 16:01:37;;;;;;;3.90;1.77;;;30.00;59.50;;;;;;4872805;29;20056;-81
2022/06/15 16:04:16;;;;;;;3.63;1.80;;;30.40;58.50;;;;;;4871735;29;20059;-80
2022/06/15 16:06:45;;;;;;;6.65;2.28;;;30.20;58.80;;;;;;4877673;29;20072;-81
2022/06/15 16:09:25;;;;;;;4.55;2.03;;;29.80;58.60;;;;;;4882042;29;20068;-82
2022/06/15 16:12:25;;;;;;;4.38;2.00;;;29.70;59.70;;;;;;4875672;29;20127;-82
2022/06/15 16:14:57;;;;;;;4.05;2.03;;;29.50;59.60;;;;;;4866081;29;20481;-81
2022/06/15 16:17:29;;;;;;;3.40;2.00;;;29.20;60.00;;;;;;4891316;29;20044;-81
2022/06/15 16:20:15;;;;;;;;;;;29.20;60.80;;;;;;4887403;29;20064;-82
2022/06/15 16:22:53;;;;;;;3.00;1.90;;;29.30;60.70;;;;;;4865468;29;20277;-81
2022/06/15 16:25:46;;;;;;;4.55;1.80;;;29.60;60.10;;;;;;4869902;29;20485;-81
2022/06/15 16:28:58;;;;;;;3.47;2.15;;;29.90;59.30;;;;;;4852754;29;20092;-82
2022/06/15 16:31:57;;;;;;;4.28;1.90;;;29.80;59.40;;;;;;4870416;29;20453;-81
2022/06/15 16:34:25;;;;;;;4.93;1.70;;;29.80;59.20;;;;;;4875692;29;20045;-81
2022/06/15 16:37:20;;;;;;;5.32;2.10;;;29.70;59.10;;;;;;4886464;29;20036;-81
2022/06/15 16:43:36;;;;;;;4.65;1.80;;;28.40;59.80;;;;;;4857531;29;20073;-81
2022/06/15 16:46:22;;;;;;;4.85;2.17;;;27.20;60.90;;;;;;4857144;29;20506;-81
2022/06/15 16:51:58;;;;;;;7.32;2.20;;;26.50;63.00;;;;;;4872146;29;20044;-81
2022/06/15 16:54:36;;;;;;;4.57;1.80;;;26.40;63.70;;;;;;4867409;29;21516;-81
2022/06/15 16:57:45;;;;;;;5.15;2.20;;;26.20;63.50;;;;;;4861112;29;20048;-81
2022/06/15 17:00:35;;;;;;;6.70;2.65;;;25.70;64.10;;;;;;4870046;29;20493;-80
2022/06/15 17:03:13;;;;;;;4.80;2.00;;;25.40;64.70;;;;;;4868591;29;20470;-81
2022/06/15 17:05:59;;;;;;;3.95;1.90;;;25.30;65.60;;;;;;4860576;29;20478;-81
2022/06/15 17:08:56;;;;;;;4.43;2.43;;;25.20;66.10;;;;;;4886138;29;20043;-81
2022/06/15 17:17:08;;;;;;;5.20;2.08;;;25.00;66.10;;;;;;4871886;29;20057;-80
2022/06/15 17:20:03;;;;;;;4.25;2.22;;;24.80;66.20;;;;;;4881709;29;20063;-81
2022/06/15 17:22:50;;;;;;;7.63;2.22;;;24.40;66.50;;;;;;4851649;29;20044;-82
2022/06/15 17:28:16;;;;;;;5.15;2.25;;;24.00;68.10;;;;;;4882959;29;20100;-80